Time;durP1;ratioP1;P1;durP2;ratioP2;P2;SDS_P1;SDS_P2;PMS_P1;PMS_P2;Temp;Humidity;BMP_temperature;BMP_pressure;BME280_temperature;BME280_humidity;BME280_pressure;Samples;Min_cycle;Max_cycle;Signal;HPM_P1;HPM_P2
2021/08/15 00:01:24;;;;;;;8.52;6.35;;;25.10;66.70;;;;;;5013653;28;20117;-54
2021/08/15 00:03:50;;;;;;;6.90;5.78;;;25.10;66.70;;;;;;5014587;28;20026;-52
2021/08/15 00:06:17;;;;;;;9.73;6.65;;;25.10;66.90;;;;;;5013473;28;20038;-55
2021/08/15 00:08:44;;;;;;;8.35;5.97;;;25.10;66.60;;;;;;5014259;28;20030;-54
2021/08/15 00:11:10;;;;;;;7.90;5.82;;;25.10;66.70;;;;;;5012473;28;20419;-51
2021/08/15 00:13:35;;;;;;;7.45;5.97;;;25.10;66.60;;;;;;4998341;28;20153;-54
2021/08/15 00:16:01;;;;;;;7.03;5.70;;;25.10;66.60;;;;;;4993148;28;20027;-58
2021/08/15 00:18:26;;;;;;;9.85;6.47;;;25.10;66.60;;;;;;4994194;28;20392;-53
2021/08/15 00:20:52;;;;;;;8.45;5.63;;;25.10;66.60;;;;;;5002094;28;20030;-54
2021/08/15 00:23:18;;;;;;;8.52;5.57;;;25.10;66.60;;;;;;5009382;28;20085;-54
2021/08/15 00:25:43;;;;;;;7.22;6.20;;;25.10;66.60;;;;;;5011834;28;20541;-55
2021/08/15 00:28:09;;;;;;;8.00;5.88;;;25.10;66.60;;;;;;5012456;28;20057;-51
2021/08/15 00:30:34;;;;;;;7.15;5.63;;;25.10;66.60;;;;;;5012952;28;20030;-54
2021/08/15 00:33:00;;;;;;;7.45;6.00;;;25.10;66.50;;;;;;5013178;28;20088;-58
2021/08/15 00:35:26;;;;;;;6.93;5.53;;;25.10;66.50;;;;;;5012675;28;20037;-52
2021/08/15 00:37:51;;;;;;;8.30;5.95;;;25.10;66.50;;;;;;5012491;28;20037;-55
2021/08/15 00:40:18;;;;;;;9.00;6.13;;;25.10;66.50;;;;;;5006191;28;20050;-54
2021/08/15 00:42:43;;;;;;;8.25;5.65;;;25.10;66.50;;;;;;4994216;28;20113;-53
2021/08/15 00:45:10;;;;;;;8.68;5.70;;;25.10;66.50;;;;;;4993423;28;20539;-54
2021/08/15 00:47:36;;;;;;;6.43;5.40;;;25.10;66.40;;;;;;4998388;28;20038;-54
2021/08/15 00:50:03;;;;;;;9.60;6.25;;;25.10;66.40;;;;;;5012866;28;20044;-57
2021/08/15 00:52:29;;;;;;;6.57;5.35;;;25.10;66.40;;;;;;5010041;28;20030;-53
2021/08/15 00:54:59;;;;;;;7.32;5.70;;;25.20;66.40;;;;;;5000091;28;20099;-51
2021/08/15 00:57:28;;;;;;;6.32;5.50;;;25.10;66.40;;;;;;5011563;28;20133;-54
2021/08/15 00:59:54;;;;;;;6.53;5.60;;;25.10;66.30;;;;;;4999177;28;20145;-54
2021/08/15 01:02:20;;;;;;;6.82;5.43;;;25.10;66.30;;;;;;5009587;28;20793;-55
2021/08/15 01:04:45;;;;;;;7.38;6.20;;;25.10;66.30;;;;;;5012865;28;20045;-54
2021/08/15 01:07:11;;;;;;;5.75;5.10;;;25.10;66.30;;;;;;5011779;28;20049;-56
2021/08/15 01:09:39;;;;;;;5.75;5.10;;;25.10;66.30;;;;;;5006209;28;20026;-54
2021/08/15 01:12:06;;;;;;;6.50;5.80;;;25.10;66.20;;;;;;5006486;28;20117;-57
2021/08/15 01:14:31;;;;;;;6.68;5.32;;;25.10;66.30;;;;;;5012885;28;20026;-55
2021/08/15 01:16:57;;;;;;;6.25;5.50;;;25.10;66.20;;;;;;5001218;28;20384;-52
2021/08/15 01:19:29;;;;;;;6.45;5.50;;;25.10;66.20;;;;;;4992709;28;20018;-53
2021/08/15 01:21:55;;;;;;;7.05;5.90;;;25.10;66.20;;;;;;5007262;28;20030;-53
2021/08/15 01:24:20;;;;;;;7.20;5.38;;;25.10;66.20;;;;;;5005796;28;20758;-56
2021/08/15 01:26:47;;;;;;;7.45;5.72;;;25.10;66.20;;;;;;5011966;28;20036;-56
2021/08/15 01:29:12;;;;;;;6.47;5.78;;;25.10;66.20;;;;;;5010575;28;20114;-55
2021/08/15 01:31:38;;;;;;;6.57;5.55;;;25.10;66.20;;;;;;5012053;28;20113;-56
2021/08/15 01:34:04;;;;;;;9.57;5.95;;;25.10;66.20;;;;;;5011819;28;20061;-59
2021/08/15 01:36:29;;;;;;;6.47;5.72;;;25.10;66.20;;;;;;5003783;28;20375;-53
2021/08/15 01:38:55;;;;;;;6.65;5.40;;;25.10;66.20;;;;;;5010356;28;20041;-53
2021/08/15 01:41:21;;;;;;;7.22;5.72;;;25.10;66.20;;;;;;5005166;28;20065;-55
2021/08/15 01:43:46;;;;;;;6.70;5.45;;;25.10;66.20;;;;;;5000889;28;20105;-55
2021/08/15 01:46:12;;;;;;;6.82;5.53;;;25.10;66.20;;;;;;5011415;28;20053;-53
2021/08/15 01:48:38;;;;;;;7.38;5.25;;;25.10;66.10;;;;;;4997586;28;20514;-56
2021/08/15 01:51:03;;;;;;;8.57;6.13;;;25.10;66.10;;;;;;5000470;28;20033;-58
2021/08/15 01:53:29;;;;;;;6.13;5.35;;;25.10;66.20;;;;;;5010451;28;20029;-52
2021/08/15 01:55:55;;;;;;;8.38;5.70;;;25.10;66.10;;;;;;5011806;28;20026;-52
2021/08/15 01:58:21;;;;;;;7.65;5.75;;;25.10;66.10;;;;;;5010663;28;20387;-51
2021/08/15 02:00:47;;;;;;;7.00;5.50;;;25.10;66.10;;;;;;5012279;28;20105;-52
2021/08/15 02:03:12;;;;;;;6.38;5.38;;;25.10;66.10;;;;;;4993756;28;20101;-53
2021/08/15 02:05:40;;;;;;;6.28;5.10;;;25.10;66.10;;;;;;5000250;28;20114;-53
2021/08/15 02:08:06;;;;;;;7.63;5.57;;;25.10;66.20;;;;;;4991767;28;20504;-58
2021/08/15 02:10:32;;;;;;;7.93;5.63;;;25.10;66.10;;;;;;5007201;28;20036;-56
2021/08/15 02:12:59;;;;;;;5.85;5.10;;;25.10;66.10;;;;;;5011701;28;20065;-54
2021/08/15 02:15:26;;;;;;;8.23;6.25;;;25.10;66.10;;;;;;5010776;28;20030;-55
2021/08/15 02:17:52;;;;;;;7.78;5.60;;;25.10;66.10;;;;;;5001379;28;20038;-56
2021/08/15 02:20:20;;;;;;;8.63;5.70;;;25.10;66.10;;;;;;4999432;28;20034;-55
2021/08/15 02:22:46;;;;;;;7.25;5.75;;;25.10;66.10;;;;;;4992798;28;20026;-55
2021/08/15 02:25:13;;;;;;;8.25;5.63;;;25.10;66.10;;;;;;4991435;28;20029;-52
2021/08/15 02:27:41;;;;;;;6.70;5.55;;;25.10;66.10;;;;;;4992380;28;20026;-54
2021/08/15 02:30:09;;;;;;;7.93;5.75;;;25.10;66.00;;;;;;4993198;28;20387;-57
2021/08/15 02:32:35;;;;;;;7.95;6.32;;;25.10;66.10;;;;;;5011348;28;20467;-54
2021/08/15 02:35:03;;;;;;;6.47;5.75;;;25.10;66.10;;;;;;5003057;28;20390;-55
2021/08/15 02:37:28;;;;;;;7.13;5.85;;;25.10;66.00;;;;;;5010534;28;20066;-54
2021/08/15 02:39:59;;;;;;;8.18;6.32;;;25.10;66.00;;;;;;5013156;28;20065;-56
2021/08/15 02:42:28;;;;;;;6.38;4.97;;;25.10;66.00;;;;;;5010966;28;20293;-54
2021/08/15 02:44:54;;;;;;;6.03;5.43;;;25.10;66.00;;;;;;4996374;28;20396;-52
2021/08/15 02:47:20;;;;;;;7.13;6.07;;;25.10;66.00;;;;;;4996097;28;20042;-53
2021/08/15 02:49:45;;;;;;;10.50;6.53;;;25.10;66.00;;;;;;5008904;28;20105;-55
2021/08/15 02:52:11;;;;;;;6.40;5.47;;;25.10;66.00;;;;;;4998999;28;20041;-56
2021/08/15 02:54:37;;;;;;;6.35;5.63;;;25.10;66.00;;;;;;4995689;28;20121;-56
2021/08/15 02:57:03;;;;;;;7.90;5.72;;;25.10;65.90;;;;;;5001843;28;20037;-56
2021/08/15 02:59:29;;;;;;;7.45;6.18;;;25.10;65.90;;;;;;5014068;28;20041;-56
2021/08/15 03:01:55;;;;;;;7.95;6.03;;;25.10;65.90;;;;;;5003217;28;20026;-56
2021/08/15 03:04:20;;;;;;;7.35;5.72;;;25.10;66.00;;;;;;5003038;28;20057;-55
2021/08/15 03:06:46;;;;;;;7.68;6.10;;;25.10;66.00;;;;;;4995669;28;20045;-55
2021/08/15 03:09:12;;;;;;;7.13;6.18;;;25.10;66.00;;;;;;4998520;28;20033;-54
2021/08/15 03:11:38;;;;;;;7.82;5.82;;;25.10;65.90;;;;;;5010650;28;20022;-54
2021/08/15 03:14:04;;;;;;;6.50;5.63;;;25.10;65.90;;;;;;5010945;28;20408;-54
2021/08/15 03:16:29;;;;;;;7.70;5.80;;;25.20;66.10;;;;;;5013803;28;20046;-51
2021/08/15 03:18:55;;;;;;;7.35;5.57;;;25.10;66.00;;;;;;5004350;28;20141;-54
2021/08/15 03:21:21;;;;;;;8.35;5.65;;;25.10;65.90;;;;;;5002814;28;20033;-55
2021/08/15 03:23:46;;;;;;;8.27;6.10;;;25.10;65.90;;;;;;4995553;28;20030;-57
2021/08/15 03:26:12;;;;;;;7.10;5.75;;;25.10;65.90;;;;;;4995044;28;20093;-55
2021/08/15 03:28:38;;;;;;;8.45;5.63;;;25.10;65.90;;;;;;5002275;28;20046;-57
2021/08/15 03:31:04;;;;;;;6.82;5.45;;;25.10;65.90;;;;;;5004800;28;20061;-55
2021/08/15 03:33:29;;;;;;;6.72;5.13;;;25.10;66.00;;;;;;5002703;28;20748;-54
2021/08/15 03:35:55;;;;;;;6.90;5.50;;;25.10;66.00;;;;;;5001936;28;20108;-56
2021/08/15 03:38:21;;;;;;;6.60;5.82;;;25.10;66.30;;;;;;5003635;28;20038;-56
2021/08/15 03:40:46;;;;;;;6.80;6.10;;;25.10;66.00;;;;;;5002230;28;20046;-54
2021/08/15 03:43:12;;;;;;;6.40;5.32;;;25.10;66.00;;;;;;5002174;28;20030;-55
2021/08/15 03:45:39;;;;;;;7.45;6.03;;;25.10;66.00;;;;;;5004145;28;20038;-57
2021/08/15 03:48:06;;;;;;;7.25;5.65;;;25.10;66.00;;;;;;5001463;28;20066;-56
2021/08/15 03:50:31;;;;;;;5.93;5.10;;;25.10;66.00;;;;;;5002321;28;20061;-56
2021/08/15 03:52:57;;;;;;;6.65;5.38;;;25.10;66.00;;;;;;5002628;28;20033;-57
2021/08/15 03:55:23;;;;;;;8.13;5.50;;;25.10;66.10;;;;;;5002563;28;20464;-56
2021/08/15 03:57:48;;;;;;;7.05;5.65;;;25.10;66.00;;;;;;5002486;28;20034;-56
2021/08/15 04:00:14;;;;;;;5.80;5.07;;;25.10;66.10;;;;;;5009288;28;20452;-55
2021/08/15 04:02:40;;;;;;;6.93;5.65;;;25.10;66.10;;;;;;4994778;28;20034;-54
2021/08/15 04:05:06;;;;;;;8.35;6.50;;;25.10;66.10;;;;;;5012487;28;20478;-58
2021/08/15 04:07:31;;;;;;;6.28;5.45;;;25.10;66.70;;;;;;5013461;28;20033;-54
2021/08/15 04:09:57;;;;;;;7.93;5.43;;;25.10;66.10;;;;;;5013613;28;20128;-56
2021/08/15 04:12:23;;;;;;;8.75;5.93;;;25.10;66.10;;;;;;5012684;28;20092;-54
2021/08/15 04:14:49;;;;;;;7.15;5.68;;;25.10;66.10;;;;;;5013705;28;20025;-57
2021/08/15 04:17:16;;;;;;;5.63;4.65;;;25.10;66.00;;;;;;5012836;28;20476;-56
2021/08/15 04:19:43;;;;;;;6.18;5.55;;;25.10;66.00;;;;;;4995704;28;20053;-56
2021/08/15 04:22:09;;;;;;;5.95;5.18;;;25.10;66.10;;;;;;4994168;28;20061;-57
2021/08/15 04:24:34;;;;;;;6.28;4.97;;;25.10;66.10;;;;;;5010526;28;20444;-55
2021/08/15 04:27:00;;;;;;;6.07;5.07;;;25.10;66.10;;;;;;5013272;28;20034;-53
2021/08/15 04:29:26;;;;;;;6.22;5.55;;;25.10;66.00;;;;;;5013308;28;20038;-56
2021/08/15 04:31:51;;;;;;;7.32;5.57;;;25.10;66.00;;;;;;5013157;28;20026;-55
2021/08/15 04:34:17;;;;;;;7.30;5.20;;;25.10;66.00;;;;;;4993636;28;20033;-55
2021/08/15 04:36:42;;;;;;;6.40;5.57;;;25.10;66.00;;;;;;5008422;28;20152;-54
2021/08/15 04:39:08;;;;;;;7.20;5.43;;;25.10;66.00;;;;;;5012988;28;20033;-57
2021/08/15 04:41:34;;;;;;;5.90;5.28;;;25.10;66.00;;;;;;5010009;28;20077;-54
2021/08/15 04:43:59;;;;;;;5.72;4.97;;;25.10;66.00;;;;;;4994187;28;20117;-54
2021/08/15 04:46:25;;;;;;;8.48;5.40;;;25.10;66.00;;;;;;4993405;28;20487;-54
2021/08/15 04:48:51;;;;;;;5.55;4.90;;;25.10;66.00;;;;;;4994202;28;20030;-55
2021/08/15 04:51:16;;;;;;;6.07;4.93;;;25.10;66.00;;;;;;4993786;28;20527;-57
2021/08/15 04:53:42;;;;;;;7.13;5.47;;;25.10;66.00;;;;;;4994138;28;20050;-55
2021/08/15 04:56:07;;;;;;;6.35;5.22;;;25.10;66.00;;;;;;4993641;28;20121;-58
2021/08/15 04:58:35;;;;;;;7.30;5.40;;;25.10;66.00;;;;;;4991679;28;20132;-51
2021/08/15 05:01:01;;;;;;;6.55;5.25;;;25.10;66.00;;;;;;4993890;28;20034;-50
2021/08/15 05:03:26;;;;;;;6.78;5.35;;;25.10;66.00;;;;;;5000701;28;20476;-50
2021/08/15 05:05:52;;;;;;;7.32;5.28;;;25.10;66.00;;;;;;4993789;28;20026;-50
2021/08/15 05:08:18;;;;;;;5.88;5.28;;;25.10;66.00;;;;;;4992987;28;20038;-52
2021/08/15 05:10:43;;;;;;;6.65;5.38;;;25.10;66.00;;;;;;5009311;28;20033;-53
2021/08/15 05:13:10;;;;;;;6.63;5.53;;;25.10;66.00;;;;;;5011947;28;20038;-57
2021/08/15 05:15:36;;;;;;;5.85;5.25;;;25.10;66.00;;;;;;5004046;28;20058;-56
2021/08/15 05:18:02;;;;;;;5.82;5.22;;;25.10;66.00;;;;;;5010928;28;20073;-54
2021/08/15 05:20:29;;;;;;;6.38;5.60;;;25.10;66.00;;;;;;5011725;28;20128;-54
2021/08/15 05:22:56;;;;;;;6.22;5.63;;;25.10;66.00;;;;;;5011931;28;20030;-55
2021/08/15 05:25:22;;;;;;;5.82;5.22;;;25.10;66.00;;;;;;5011594;28;20092;-55
2021/08/15 05:27:48;;;;;;;5.90;5.30;;;25.10;66.00;;;;;;5012153;28;20018;-54
2021/08/15 05:30:14;;;;;;;7.05;5.72;;;25.10;66.00;;;;;;5008822;28;21515;-53
2021/08/15 05:32:39;;;;;;;6.40;5.28;;;25.10;66.00;;;;;;5006501;28;20032;-55
2021/08/15 05:35:05;;;;;;;7.82;5.55;;;25.10;66.00;;;;;;5012045;28;20041;-51
2021/08/15 05:37:31;;;;;;;7.65;5.25;;;25.10;65.90;;;;;;5011097;28;20034;-53
2021/08/15 05:39:56;;;;;;;6.97;5.10;;;25.10;65.90;;;;;;5012503;28;20018;-54
2021/08/15 05:42:22;;;;;;;5.82;4.90;;;25.20;66.00;;;;;;5010812;28;20403;-53
2021/08/15 05:44:48;;;;;;;8.18;5.90;;;25.20;65.90;;;;;;5006756;28;20030;-51
2021/08/15 05:47:14;;;;;;;5.72;5.10;;;25.20;65.90;;;;;;5007775;28;20030;-54
2021/08/15 05:49:39;;;;;;;8.30;5.50;;;25.30;65.80;;;;;;5012103;28;20368;-54
2021/08/15 05:52:05;;;;;;;5.93;4.82;;;25.30;65.80;;;;;;5006316;28;20058;-50
2021/08/15 05:54:31;;;;;;;5.70;4.80;;;25.30;65.60;;;;;;4991791;28;20034;-53
2021/08/15 05:56:57;;;;;;;8.70;6.40;;;25.30;65.50;;;;;;4993698;28;20038;-53
2021/08/15 05:59:22;;;;;;;13.52;8.52;;;25.30;65.40;;;;;;4993059;28;20513;-54
2021/08/15 06:01:48;;;;;;;12.90;8.15;;;25.00;66.40;;;;;;4992845;28;20515;-53
2021/08/15 06:04:14;;;;;;;11.90;9.15;;;24.60;67.70;;;;;;5006189;28;20383;-54
2021/08/15 06:06:39;;;;;;;12.55;8.75;;;24.50;68.20;;;;;;5011448;28;20040;-50
2021/08/15 06:09:05;;;;;;;10.48;8.65;;;24.40;68.50;;;;;;5008429;28;20023;-53
2021/08/15 06:11:31;;;;;;;13.23;9.13;;;24.30;68.70;;;;;;4992003;28;20267;-49
2021/08/15 06:13:57;;;;;;;13.50;9.85;;;24.30;68.80;;;;;;4993316;28;20030;-53
2021/08/15 06:16:24;;;;;;;11.07;7.95;;;24.30;68.70;;;;;;5010890;28;20022;-52
2021/08/15 06:18:51;;;;;;;11.45;8.65;;;24.30;68.50;;;;;;5004161;28;20032;-56
2021/08/15 06:21:16;;;;;;;13.80;8.77;;;24.30;68.40;;;;;;5003444;28;20084;-52
2021/08/15 06:23:42;;;;;;;12.90;8.48;;;24.40;68.30;;;;;;4998612;28;20026;-54
2021/08/15 06:26:08;;;;;;;10.48;7.82;;;24.30;68.20;;;;;;4992932;28;20105;-52
2021/08/15 06:28:33;;;;;;;10.60;8.27;;;24.30;68.10;;;;;;4993786;28;20045;-54
2021/08/15 06:30:59;;;;;;;11.25;8.13;;;24.40;68.10;;;;;;5011102;28;20026;-54
2021/08/15 06:33:25;;;;;;;12.48;8.90;;;24.40;68.30;;;;;;5011119;28;20038;-52
2021/08/15 06:35:51;;;;;;;12.20;9.05;;;24.40;68.30;;;;;;5011220;28;20029;-55
2021/08/15 06:38:16;;;;;;;12.75;8.57;;;24.40;68.50;;;;;;5003175;28;20074;-53
2021/08/15 06:40:42;;;;;;;12.10;8.90;;;24.50;69.00;;;;;;4992194;28;20050;-53
2021/08/15 06:43:09;;;;;;;13.07;8.75;;;24.50;69.10;;;;;;4993246;28;20038;-54
2021/08/15 06:45:36;;;;;;;13.48;9.38;;;24.60;68.60;;;;;;4991433;28;20115;-49
2021/08/15 06:48:03;;;;;;;10.68;9.35;;;24.60;69.20;;;;;;4993423;28;20439;-54
2021/08/15 06:50:28;;;;;;;10.63;8.88;;;24.60;69.10;;;;;;4996004;28;20089;-51
2021/08/15 06:52:54;;;;;;;14.93;9.40;;;24.70;69.00;;;;;;4992438;28;20034;-56
2021/08/15 06:55:20;;;;;;;12.73;9.02;;;24.60;69.10;;;;;;4991409;28;20049;-54
2021/08/15 06:57:45;;;;;;;12.27;9.43;;;24.60;69.20;;;;;;4999447;28;20112;-52
2021/08/15 07:00:12;;;;;;;12.25;8.80;;;24.70;69.00;;;;;;5011048;28;20198;-58
2021/08/15 07:02:38;;;;;;;12.32;9.27;;;24.80;68.90;;;;;;4997374;28;20029;-50
2021/08/15 07:05:09;;;;;;;13.30;9.15;;;24.80;69.10;;;;;;4990897;28;20030;-51
2021/08/15 07:07:35;;;;;;;12.13;8.90;;;24.80;69.40;;;;;;4991446;28;20045;-49
2021/08/15 07:10:02;;;;;;;13.77;9.07;;;24.90;68.80;;;;;;4998378;28;20108;-54
2021/08/15 07:12:28;;;;;;;18.42;9.48;;;24.90;68.90;;;;;;4997250;28;20026;-53
2021/08/15 07:14:53;;;;;;;16.00;9.48;;;24.90;68.60;;;;;;4998906;28;20037;-53
2021/08/15 07:17:19;;;;;;;12.90;9.02;;;25.00;68.60;;;;;;5004102;28;20121;-55
2021/08/15 07:19:45;;;;;;;13.82;9.00;;;25.10;68.00;;;;;;5005751;28;20462;-51
2021/08/15 07:22:10;;;;;;;15.18;8.52;;;25.10;67.70;;;;;;5011255;28;20080;-48
2021/08/15 07:24:36;;;;;;;13.48;8.90;;;25.20;67.70;;;;;;5010008;28;20073;-50
2021/08/15 07:27:02;;;;;;;15.13;8.75;;;25.10;67.90;;;;;;5012965;28;20037;-49
2021/08/15 07:29:27;;;;;;;13.15;9.52;;;25.30;67.70;;;;;;5013327;28;20022;-51
2021/08/15 07:31:53;;;;;;;11.93;9.23;;;25.30;67.70;;;;;;5002635;28;20081;-49
2021/08/15 07:34:20;;;;;;;10.77;8.95;;;25.40;67.50;;;;;;5003125;28;20026;-51
2021/08/15 07:36:46;;;;;;;11.40;9.27;;;25.40;67.50;;;;;;5004009;28;20764;-54
2021/08/15 07:39:12;;;;;;;12.45;9.20;;;25.40;67.30;;;;;;5002500;28;20041;-55
2021/08/15 07:41:38;;;;;;;11.45;8.43;;;25.40;67.20;;;;;;5003523;28;20567;-52
2021/08/15 07:44:04;;;;;;;16.92;9.35;;;25.40;66.90;;;;;;5003349;28;20112;-55
2021/08/15 07:46:30;;;;;;;11.55;8.43;;;25.40;66.70;;;;;;5001755;28;20472;-54
2021/08/15 07:48:57;;;;;;;12.07;8.63;;;25.50;66.40;;;;;;5003995;28;20080;-54
2021/08/15 07:51:23;;;;;;;12.85;8.60;;;25.50;66.50;;;;;;5002029;28;20087;-55
2021/08/15 07:53:50;;;;;;;10.75;8.88;;;25.50;66.10;;;;;;5002016;28;20377;-52
2021/08/15 07:56:16;;;;;;;13.18;8.63;;;25.50;65.90;;;;;;5003692;28;20108;-58
2021/08/15 07:58:41;;;;;;;11.02;8.18;;;25.50;65.70;;;;;;5001907;28;20460;-51
2021/08/15 08:01:07;;;;;;;12.73;8.27;;;25.60;65.30;;;;;;5003155;28;20031;-53
2021/08/15 08:03:33;;;;;;;10.18;7.50;;;25.60;64.90;;;;;;5000951;28;20080;-54
2021/08/15 08:05:59;;;;;;;11.45;8.18;;;25.60;64.90;;;;;;5003534;28;20383;-48
2021/08/15 08:08:24;;;;;;;14.32;9.00;;;25.60;65.20;;;;;;5002810;28;20365;-51
2021/08/15 08:10:53;;;;;;;16.95;7.97;;;25.60;65.40;;;;;;5002704;28;20045;-49
2021/08/15 08:13:20;;;;;;;12.65;7.60;;;25.70;65.30;;;;;;5001777;28;20357;-52
2021/08/15 08:15:46;;;;;;;9.77;7.25;;;25.80;65.00;;;;;;5002543;28;20053;-48
2021/08/15 08:18:12;;;;;;;9.63;7.43;;;25.90;64.90;;;;;;5003388;28;20112;-53
2021/08/15 08:20:39;;;;;;;12.98;7.90;;;25.90;64.90;;;;;;5001451;28;20038;-47
2021/08/15 08:23:11;;;;;;;11.50;7.72;;;25.90;65.00;;;;;;5002141;28;20483;-56
2021/08/15 08:25:38;;;;;;;11.52;8.43;;;26.00;64.90;;;;;;5008468;28;20029;-52
2021/08/15 08:28:04;;;;;;;13.65;7.40;;;25.90;64.90;;;;;;5013688;28;20100;-55
2021/08/15 08:30:30;;;;;;;14.45;8.13;;;25.90;64.90;;;;;;5012552;28;20109;-56
2021/08/15 08:32:56;;;;;;;12.52;7.43;;;26.00;64.90;;;;;;5012166;28;20026;-53
2021/08/15 08:35:22;;;;;;;13.45;8.25;;;26.00;64.80;;;;;;5012861;28;20033;-58
2021/08/15 08:37:48;;;;;;;11.93;7.10;;;26.00;64.90;;;;;;5011849;28;20033;-58
2021/08/15 08:40:17;;;;;;;13.57;7.95;;;26.10;65.00;;;;;;5011592;28;20379;-63
2021/08/15 08:42:45;;;;;;;13.57;9.00;;;26.10;65.00;;;;;;5013729;28;20026;-59
2021/08/15 08:45:13;;;;;;;12.88;8.07;;;26.10;65.00;;;;;;5012547;28;20026;-62
2021/08/15 08:47:39;;;;;;;11.23;7.55;;;26.00;65.20;;;;;;5011899;28;20061;-58
2021/08/15 08:50:05;;;;;;;12.60;7.80;;;26.10;65.50;;;;;;5012981;28;20064;-59
2021/08/15 08:52:31;;;;;;;11.93;8.02;;;26.10;65.40;;;;;;5003709;28;20061;-59
2021/08/15 08:54:58;;;;;;;10.80;7.53;;;26.10;65.10;;;;;;5012836;28;20494;-60
2021/08/15 08:57:24;;;;;;;9.13;7.10;;;26.20;65.10;;;;;;5011425;28;20038;-61
2021/08/15 08:59:50;;;;;;;10.73;6.88;;;26.10;65.30;;;;;;5012688;28;20030;-61
2021/08/15 09:02:16;;;;;;;11.05;7.55;;;26.10;65.10;;;;;;5012544;28;20033;-59
2021/08/15 09:04:42;;;;;;;12.15;7.30;;;26.20;65.10;;;;;;5011909;28;20530;-60
2021/08/15 09:07:13;;;;;;;13.15;6.80;;;26.20;65.10;;;;;;5007954;28;20038;-60
2021/08/15 09:09:41;;;;;;;10.60;7.03;;;26.20;65.00;;;;;;5000203;28;20059;-58
2021/08/15 09:12:07;;;;;;;15.40;7.55;;;26.20;65.20;;;;;;5012521;28;20403;-61
2021/08/15 09:14:33;;;;;;;13.63;6.82;;;26.30;65.30;;;;;;5011946;28;20030;-61
2021/08/15 09:17:04;;;;;;;10.60;6.97;;;26.30;65.10;;;;;;5015038;28;20044;-62
2021/08/15 09:19:47;;;;;;;12.88;7.13;;;26.40;65.30;;;;;;5007865;28;20398;-62
2021/08/15 09:22:18;;;;;;;12.02;6.65;;;26.50;65.20;;;;;;4996521;28;20085;-61
2021/08/15 09:24:46;;;;;;;14.40;7.55;;;26.50;65.10;;;;;;5011548;28;20034;-63
2021/08/15 09:27:20;;;;;;;12.68;7.03;;;26.50;65.00;;;;;;5012440;28;20124;-62
2021/08/15 09:30:14;;;;;;;14.63;6.85;;;26.50;64.90;;;;;;5008556;28;20372;-62
2021/08/15 09:32:54;;;;;;;9.75;7.18;;;26.50;65.10;;;;;;5011341;28;20065;-63
2021/08/15 09:35:35;;;;;;;11.63;6.88;;;26.40;65.60;;;;;;5007680;28;20027;-60
2021/08/15 09:38:11;;;;;;;18.27;7.90;;;26.50;65.80;;;;;;4993404;28;20480;-64
2021/08/15 09:40:45;;;;;;;10.38;7.05;;;26.50;65.90;;;;;;4991834;28;20825;-64
2021/08/15 09:43:23;;;;;;;9.88;6.80;;;26.50;65.40;;;;;;5002460;28;20026;-61
2021/08/15 09:45:50;;;;;;;9.00;6.55;;;26.40;65.60;;;;;;5012216;28;20057;-60
2021/08/15 09:48:16;;;;;;;10.20;6.22;;;26.50;65.60;;;;;;4992632;28;20038;-60
2021/08/15 09:50:42;;;;;;;10.85;7.60;;;26.50;66.10;;;;;;5006022;28;20088;-59
2021/08/15 09:53:23;;;;;;;9.38;7.38;;;26.50;65.40;;;;;;5010627;28;20088;-60
2021/08/15 09:55:49;;;;;;;8.43;6.80;;;26.50;65.70;;;;;;4993017;28;20436;-60
2021/08/15 09:58:16;;;;;;;8.73;7.50;;;26.50;65.50;;;;;;5008878;28;20041;-61
2021/08/15 10:00:42;;;;;;;8.10;6.75;;;26.50;66.40;;;;;;5011233;28;20026;-62
2021/08/15 10:03:08;;;;;;;10.50;7.22;;;26.50;65.60;;;;;;5011847;28;20100;-63
2021/08/15 10:05:35;;;;;;;11.27;6.85;;;26.50;65.50;;;;;;4993425;28;20041;-63
2021/08/15 10:08:02;;;;;;;8.65;6.85;;;26.50;65.60;;;;;;4992032;28;20484;-61
2021/08/15 10:10:28;;;;;;;8.18;7.13;;;26.50;65.60;;;;;;4997138;28;20045;-61
2021/08/15 10:12:54;;;;;;;8.38;6.70;;;26.50;65.30;;;;;;4993071;28;20035;-61
2021/08/15 10:15:20;;;;;;;11.13;7.35;;;26.60;65.20;;;;;;4992215;28;20035;-61
2021/08/15 10:17:50;;;;;;;11.27;7.45;;;26.60;65.10;;;;;;5008301;28;20053;-60
2021/08/15 10:20:27;;;;;;;8.55;7.65;;;26.50;65.00;;;;;;4997933;28;20061;-61
2021/08/15 10:23:07;;;;;;;10.85;7.85;;;26.50;65.20;;;;;;4992665;28;20022;-64
2021/08/15 10:25:43;;;;;;;13.88;8.00;;;26.50;65.30;;;;;;4998438;28;20021;-62
2021/08/15 10:28:28;;;;;;;8.85;7.43;;;26.50;65.20;;;;;;5010854;28;20025;-61
2021/08/15 10:30:56;;;;;;;11.05;8.30;;;26.40;65.60;;;;;;5009958;28;20096;-61
2021/08/15 10:33:24;;;;;;;18.33;7.70;;;26.30;65.80;;;;;;4999525;28;20034;-61
2021/08/15 10:36:18;;;;;;;15.25;8.13;;;26.20;66.10;;;;;;4997851;28;20025;-63
2021/08/15 10:38:44;;;;;;;12.95;7.97;;;26.20;66.00;;;;;;5010783;28;20034;-63
2021/08/15 10:41:10;;;;;;;9.00;7.18;;;26.20;65.80;;;;;;4994900;28;20050;-63
2021/08/15 10:43:36;;;;;;;9.05;7.75;;;26.20;65.80;;;;;;5010436;28;20026;-62
2021/08/15 10:46:22;;;;;;;8.50;6.82;;;26.20;65.80;;;;;;5011020;28;20417;-63
2021/08/15 10:49:05;;;;;;;8.57;6.97;;;26.20;65.90;;;;;;4999083;28;20041;-62
2021/08/15 10:51:47;;;;;;;8.70;7.03;;;26.10;65.90;;;;;;5007526;28;20471;-65
2021/08/15 10:54:39;;;;;;;8.98;7.18;;;26.10;66.00;;;;;;5001424;28;20368;-64
2021/08/15 10:57:05;;;;;;;13.95;8.25;;;26.10;65.90;;;;;;5001039;28;20054;-62
2021/08/15 10:59:38;;;;;;;11.13;7.63;;;26.10;66.30;;;;;;5000085;28;20033;-61
2021/08/15 11:02:15;;;;;;;10.02;7.47;;;26.10;66.30;;;;;;5003705;28;20032;-62
2021/08/15 11:04:54;;;;;;;13.25;7.93;;;26.10;66.20;;;;;;5002847;28;20185;-63
2021/08/15 11:07:52;;;;;;;8.55;7.57;;;26.00;66.30;;;;;;5001587;28;20037;-62
2021/08/15 11:10:17;;;;;;;9.73;7.60;;;26.10;66.50;;;;;;5002006;28;20407;-62
2021/08/15 11:13:15;;;;;;;12.10;7.97;;;26.00;66.50;;;;;;5000962;28;20024;-61
2021/08/15 11:15:41;;;;;;;15.80;8.70;;;26.00;66.60;;;;;;5004976;28;20161;-62
2021/08/15 11:18:11;;;;;;;12.18;7.38;;;26.00;66.70;;;;;;5003833;28;20117;-60
2021/08/15 11:20:45;;;;;;;13.48;6.85;;;26.00;67.60;;;;;;5006062;28;20026;-61
2021/08/15 11:23:19;;;;;;;17.73;7.50;;;26.00;67.40;;;;;;5004844;28;20038;-65
2021/08/15 11:25:45;;;;;;;12.00;8.00;;;26.00;67.40;;;;;;5003044;28;20078;-66
2021/08/15 11:28:12;;;;;;;11.25;7.43;;;26.10;67.70;;;;;;5004591;28;20109;-64
2021/08/15 11:30:38;;;;;;;11.25;7.18;;;26.00;67.50;;;;;;5002117;28;20034;-60
2021/08/15 11:33:08;;;;;;;10.48;7.43;;;26.00;67.60;;;;;;5003166;28;20496;-62
2021/08/15 11:35:45;;;;;;;10.75;7.38;;;26.00;67.40;;;;;;5001585;28;20027;-60
2021/08/15 11:38:16;;;;;;;14.60;7.15;;;26.00;67.40;;;;;;5002728;28;20042;-62
2021/08/15 11:40:51;;;;;;;11.60;7.23;;;26.00;67.40;;;;;;5001853;28;20637;-62
2021/08/15 11:43:22;;;;;;;11.13;7.30;;;26.00;67.30;;;;;;5003253;28;20468;-63
2021/08/15 11:45:54;;;;;;;14.70;7.63;;;25.90;67.50;;;;;;5003839;28;20034;-62
2021/08/15 11:48:22;;;;;;;9.40;6.90;;;25.90;67.50;;;;;;5003255;28;20053;-63
2021/08/15 11:50:49;;;;;;;8.95;7.10;;;25.90;67.80;;;;;;5004404;28;20026;-63
2021/08/15 11:53:26;;;;;;;7.97;6.55;;;25.90;68.30;;;;;;5003594;28;20376;-62
2021/08/15 11:55:54;;;;;;;10.32;7.60;;;25.90;68.10;;;;;;5003790;28;20083;-62
2021/08/15 11:58:20;;;;;;;11.00;7.10;;;25.90;68.30;;;;;;5002963;28;20030;-62
2021/08/15 12:00:47;;;;;;;8.05;6.53;;;25.90;68.50;;;;;;5003412;28;20049;-62
2021/08/15 12:03:17;;;;;;;10.98;7.15;;;25.90;68.60;;;;;;5002593;28;20038;-62
2021/08/15 12:05:46;;;;;;;9.77;7.15;;;25.80;68.50;;;;;;5002605;28;20018;-62
2021/08/15 12:08:14;;;;;;;9.35;6.55;;;25.90;68.90;;;;;;5002150;28;20038;-62
2021/08/15 12:10:42;;;;;;;9.48;7.45;;;25.80;68.80;;;;;;5005104;28;20025;-62
2021/08/15 12:13:23;;;;;;;9.23;7.57;;;25.80;69.00;;;;;;5000389;28;20038;-62
2021/08/15 12:16:05;;;;;;;10.40;7.45;;;25.80;69.20;;;;;;5001846;28;20032;-62
2021/08/15 12:18:48;;;;;;;10.55;6.85;;;25.80;69.40;;;;;;5002301;28;20035;-62
2021/08/15 12:21:16;;;;;;;9.82;7.03;;;25.80;69.50;;;;;;5003019;28;20041;-62
2021/08/15 12:24:07;;;;;;;8.23;7.28;;;25.80;69.50;;;;;;5002693;28;20095;-62
2021/08/15 12:26:44;;;;;;;10.55;7.18;;;25.80;69.70;;;;;;5002287;28;20038;-63
2021/08/15 12:29:18;;;;;;;10.18;6.80;;;25.80;70.00;;;;;;5003304;28;20053;-61
2021/08/15 12:31:44;;;;;;;9.00;6.90;;;25.80;70.10;;;;;;5002527;28;20145;-62
2021/08/15 12:34:18;;;;;;;11.23;6.53;;;25.80;70.30;;;;;;5002898;28;20113;-62
2021/08/15 12:36:50;;;;;;;8.90;6.95;;;25.80;70.40;;;;;;5000364;28;20030;-62
2021/08/15 12:39:25;;;;;;;9.02;7.18;;;25.80;70.30;;;;;;5002876;28;20105;-62
2021/08/15 12:41:53;;;;;;;10.15;8.05;;;25.80;70.40;;;;;;5002218;28;20051;-62
2021/08/15 12:44:45;;;;;;;10.25;7.70;;;25.80;70.50;;;;;;5003211;28;20498;-63
2021/08/15 12:47:11;;;;;;;9.35;7.28;;;25.80;70.50;;;;;;5001137;28;20050;-63